Brooklyn, Connecticut
Current Conditions -  °F | °C
As of 4:52 PM on Monday 24 Nov 2014 (Local Time) from KIJD Reporting Station
Overcast Overcast  
Wind Chill: 61°   Ceiling: 700
Heat Index: 61°   Visibility: 10mi
Dew Point: 58°   Wind: 12mph
Humidity: 90%   Direction: 190°S
Pressure: 29.63"   Gusts: 22mph
Location:  41.79°N, 71.95°W
Report Text: KIJD 242152Z AUTO 19010G19KT 10SM OVC007 16/14 A2963 RMK AO2 CIG 006V011 SLP031 T01610144
Loading
Personal Weather Stations






























Interactive Weather Map New forecast layout! Learn more

10-Day Weather Forecast

Advertisements
Track Severe Weather on mobile